Time;durP1;ratioP1;P1;durP2;ratioP2;P2;SDS_P1;SDS_P2;PMS_P1;PMS_P2;Temp;Humidity;BMP_temperature;BMP_pressure;BME280_temperature;BME280_humidity;BME280_pressure;Samples;Min_cycle;Max_cycle;Signal;HPM_P1;HPM_P2
2022/10/30 00:00:54;;;;;;;23.50;10.07;;;;;;;15.07;70.83;100595.75;10436964;28;20078;-79
2022/10/30 00:05:56;;;;;;;25.88;9.82;;;;;;;15.03;70.90;100595.22;10440333;28;20449;-79
2022/10/30 00:11:05;;;;;;;18.70;8.30;;;;;;;15.12;70.40;100590.75;10431560;28;20045;-79
2022/10/30 00:16:09;;;;;;;20.73;9.35;;;;;;;15.16;69.67;100592.16;10440695;28;20428;-79
2022/10/30 00:21:15;;;;;;;23.50;9.68;;;;;;;15.19;69.35;100584.59;10443709;28;20044;-80
2022/10/30 00:26:19;;;;;;;16.38;8.55;;;;;;;15.24;69.06;100586.84;10448373;28;20052;-79
2022/10/30 00:31:24;;;;;;;18.55;8.45;;;;;;;15.25;68.65;100578.59;10422630;28;20572;-79
2022/10/30 00:36:26;;;;;;;23.20;8.07;;;;;;;15.26;68.84;100574.88;10436814;28;20494;-79
2022/10/30 00:41:29;;;;;;;16.60;8.48;;;;;;;15.27;68.59;100581.97;10441966;28;20040;-79
2022/10/30 00:46:37;;;;;;;16.48;7.80;;;;;;;15.26;68.30;100583.00;10436590;28;20078;-79
2022/10/30 00:51:44;;;;;;;18.70;7.30;;;;;;;15.19;68.58;100586.44;10442691;28;20106;-79
2022/10/30 00:56:48;;;;;;;16.05;8.48;;;;;;;15.22;68.73;100580.72;10406251;28;20509;-79
2022/10/30 01:01:54;;;;;;;16.48;7.25;;;;;;;15.15;68.89;100587.75;10427292;28;20056;-79
2022/10/30 01:06:59;;;;;;;19.95;9.48;;;;;;;15.15;68.53;100580.47;10442741;28;20083;-79
2022/10/30 01:12:02;;;;;;;20.63;6.95;;;;;;;15.14;68.28;100576.09;10435814;28;20278;-79
2022/10/30 01:17:38;;;;;;;15.23;7.72;;;;;;;15.18;68.23;100585.59;10437702;28;20454;-79
2022/10/30 01:22:54;;;;;;;16.55;8.18;;;;;;;15.19;68.03;100586.44;10412988;28;20064;-80
2022/10/30 01:28:04;;;;;;;17.05;7.40;;;;;;;15.18;68.03;100593.72;10435700;28;20511;-79
2022/10/30 01:33:23;;;;;;;18.63;8.45;;;;;;;15.20;67.74;100589.00;10442486;28;20805;-80
2022/10/30 01:38:31;;;;;;;21.92;8.15;;;;;;;15.18;67.88;100601.81;10441487;28;20045;-79
2022/10/30 01:43:36;;;;;;;15.57;7.53;;;;;;;15.19;67.71;100599.97;10439061;28;20045;-79
2022/10/30 01:48:57;;;;;;;16.33;7.07;;;;;;;15.19;67.80;100595.44;10443797;28;20065;-79
2022/10/30 01:54:08;;;;;;;16.58;6.82;;;;;;;15.20;67.30;100598.97;10435519;28;20084;-79
2022/10/30 01:59:17;;;;;;;17.27;7.57;;;;;;;15.18;67.82;100593.72;10430485;28;20045;-79
2022/10/30 02:04:23;;;;;;;9.85;6.78;;;;;;;15.13;67.80;100593.31;10440745;28;20036;-80
2022/10/30 02:09:27;;;;;;;15.40;6.65;;;;;;;15.09;68.34;100593.78;10443001;28;20052;-79
2022/10/30 02:14:33;;;;;;;16.63;8.52;;;;;;;15.06;68.28;100597.63;10435895;28;20138;-79
2022/10/30 02:19:39;;;;;;;14.02;7.35;;;;;;;15.05;68.89;100593.19;10435431;28;20051;-79
2022/10/30 02:24:44;;;;;;;16.63;7.20;;;;;;;15.02;68.63;100590.78;10433677;28;20041;-80
2022/10/30 02:29:48;;;;;;;18.45;7.43;;;;;;;14.99;68.71;100589.22;10434615;28;20186;-80
2022/10/30 02:34:51;;;;;;;14.20;7.25;;;;;;;14.97;68.92;100593.94;10428740;28;20533;-79
2022/10/30 02:39:55;;;;;;;20.17;7.82;;;;;;;14.95;68.99;100590.53;10457438;28;20053;-79
2022/10/30 02:44:58;;;;;;;21.90;8.05;;;;;;;14.95;68.77;100590.53;10420597;28;20045;-79
2022/10/30 02:50:01;;;;;;;16.92;7.05;;;;;;;14.94;69.21;100587.97;10416098;28;20036;-80
2022/10/30 02:55:06;;;;;;;10.18;6.93;;;;;;;14.92;69.47;100584.53;10422679;28;20045;-80
2022/10/30 03:00:10;;;;;;;13.95;7.70;;;;;;;14.85;69.62;100588.88;10423384;28;20674;-80
2022/10/30 03:05:14;;;;;;;20.42;7.10;;;;;;;14.80;69.42;100592.84;10437153;28;20048;-79
2022/10/30 03:10:18;;;;;;;15.55;7.13;;;;;;;14.77;69.58;100586.88;10441245;28;20152;-78
2022/10/30 03:15:21;;;;;;;18.17;7.88;;;;;;;14.74;69.89;100592.59;10432252;28;20108;-79
2022/10/30 03:20:24;;;;;;;17.92;7.47;;;;;;;14.68;70.24;100594.03;10442515;28;20162;-79
2022/10/30 03:25:29;;;;;;;13.80;7.35;;;;;;;14.65;70.43;100599.72;10436695;28;20048;-78
2022/10/30 03:30:34;;;;;;;16.83;8.00;;;;;;;14.58;70.35;100590.50;10439538;28;20044;-79
2022/10/30 03:35:43;;;;;;;18.73;7.55;;;;;;;14.49;70.64;100589.50;10441824;28;20111;-78
2022/10/30 03:40:47;;;;;;;17.73;7.28;;;;;;;14.51;70.52;100582.13;10435767;28;20045;-78
2022/10/30 03:45:52;;;;;;;15.23;7.70;;;;;;;14.53;70.19;100587.38;10447676;28;20422;-79
2022/10/30 03:50:56;;;;;;;20.55;8.27;;;;;;;14.48;70.43;100587.81;10439259;28;20053;-79
2022/10/30 03:56:02;;;;;;;15.10;8.07;;;;;;;14.44;71.08;100604.47;10441529;28;21470;-79
2022/10/30 04:01:13;;;;;;;15.70;7.78;;;;;;;14.42;70.81;100595.63;10430925;28;20094;-79
2022/10/30 04:06:21;;;;;;;15.80;7.85;;;;;;;14.41;70.81;100591.25;10443486;28;20540;-79
2022/10/30 04:11:25;;;;;;;17.48;7.22;;;;;;;14.32;71.33;100607.28;10439418;28;20048;-79
2022/10/30 04:16:28;;;;;;;21.25;8.43;;;;;;;14.31;71.34;100594.75;10433501;28;20045;-79
2022/10/30 04:21:34;;;;;;;14.68;7.18;;;;;;;14.40;70.77;100598.50;10434388;28;20094;-79
2022/10/30 04:26:39;;;;;;;17.92;8.43;;;;;;;14.40;70.75;100603.91;10441551;28;20049;-79
2022/10/30 04:31:41;;;;;;;16.42;8.27;;;;;;;14.41;70.69;100596.66;10443846;28;20412;-78
2022/10/30 04:36:44;;;;;;;14.25;7.75;;;;;;;14.41;70.93;100593.94;10448778;28;20056;-79
2022/10/30 04:41:49;;;;;;;17.02;7.93;;;;;;;14.36;70.48;100589.78;10453641;28;20055;-79
2022/10/30 04:46:58;;;;;;;13.75;8.18;;;;;;;14.36;70.54;100588.94;10441568;28;20056;-79
2022/10/30 04:52:01;;;;;;;24.88;8.00;;;;;;;14.34;70.79;100590.91;10440810;28;20369;-79
2022/10/30 04:57:05;;;;;;;15.45;8.38;;;;;;;14.24;70.40;100590.94;10435194;28;20071;-79
2022/10/30 05:02:09;;;;;;;15.85;7.60;;;;;;;14.17;70.81;100600.59;10445520;28;20044;-79
2022/10/30 05:07:13;;;;;;;18.58;7.72;;;;;;;14.07;71.02;100588.94;10440024;28;20615;-80
2022/10/30 05:12:18;;;;;;;17.92;8.75;;;;;;;13.96;71.42;100586.38;10435967;28;20101;-79
2022/10/30 05:17:27;;;;;;;19.40;8.23;;;;;;;13.87;71.50;100601.59;10439724;28;20101;-79
2022/10/30 05:22:35;;;;;;;14.38;8.15;;;;;;;13.82;71.48;100584.94;10428169;28;20395;-78
2022/10/30 05:27:39;;;;;;;19.58;7.80;;;;;;;13.75;71.42;100587.38;10398024;28;20226;-78
2022/10/30 05:32:42;;;;;;;17.42;8.05;;;;;;;13.68;71.71;100583.50;10430935;28;20049;-77
2022/10/30 05:37:45;;;;;;;16.17;8.65;;;;;;;13.58;71.67;100588.91;10448043;28;20049;-78
2022/10/30 05:42:51;;;;;;;16.65;7.63;;;;;;;13.53;71.90;100593.00;10435633;28;20106;-77
2022/10/30 05:47:55;;;;;;;16.92;8.27;;;;;;;13.53;72.05;100596.56;10437280;28;20066;-78
2022/10/30 05:52:59;;;;;;;19.70;8.20;;;;;;;13.44;71.89;100605.50;10438683;28;20040;-80
2022/10/30 05:58:05;;;;;;;17.88;8.07;;;;;;;13.37;72.14;100593.53;10452550;28;20134;-79
2022/10/30 06:03:13;;;;;;;19.25;7.82;;;;;;;13.38;71.80;100606.88;10422504;28;20051;-79
2022/10/30 06:08:18;;;;;;;16.50;7.70;;;;;;;13.38;71.18;100604.16;10412157;28;20053;-78
2022/10/30 06:13:24;;;;;;;13.93;7.65;;;;;;;13.36;71.16;100616.94;10419414;28;20049;-78
2022/10/30 06:18:57;;;;;;;15.88;7.50;;;;;;;13.33;71.26;100625.31;10419795;28;20063;-79
2022/10/30 06:24:03;;;;;;;20.95;6.82;;;;;;;13.35;70.85;100630.53;10421470;28;20239;-78
2022/10/30 06:29:27;;;;;;;16.77;7.40;;;;;;;13.38;70.27;100627.59;10426499;28;20041;-79
2022/10/30 06:34:30;;;;;;;13.75;7.18;;;;;;;13.36;70.01;100627.72;10413877;28;20128;-78
2022/10/30 06:39:33;;;;;;;16.35;7.05;;;;;;;13.38;70.25;100627.59;10434050;28;20048;-79
2022/10/30 06:45:04;;;;;;;17.30;8.32;;;;;;;13.37;70.74;100624.06;10405593;28;20082;-80
2022/10/30 06:50:11;;;;;;;20.00;8.38;;;;;;;13.40;71.46;100621.09;10423320;28;20080;-79
2022/10/30 06:55:14;;;;;;;11.48;5.45;;;;;;;13.62;72.09;100622.72;10417182;28;20086;-79
2022/10/30 07:00:27;;;;;;;12.10;6.10;;;;;;;13.99;71.63;100619.38;10425285;28;20048;-80
2022/10/30 07:05:48;;;;;;;12.25;5.93;;;;;;;14.41;70.45;100615.56;10428691;28;20614;-81
2022/10/30 07:10:51;;;;;;;16.55;6.38;;;;;;;14.77;68.70;100613.94;10450517;28;20040;-80
2022/10/30 07:16:04;;;;;;;14.57;6.13;;;;;;;15.15;67.98;100617.50;10468744;28;20048;-80
2022/10/30 07:21:11;;;;;;;17.70;6.80;;;;;;;15.43;66.68;100608.44;10464550;28;20093;-78
2022/10/30 07:26:15;;;;;;;14.27;6.78;;;;;;;15.69;65.17;100613.16;10439036;28;20052;-78
2022/10/30 07:31:22;;;;;;;14.93;7.70;;;;;;;15.43;64.91;100610.28;10465430;28;20117;-80
2022/10/30 07:37:02;;;;;;;17.00;8.07;;;;;;;15.22;65.94;100614.06;10455650;28;20453;-80
2022/10/30 07:42:18;;;;;;;17.17;6.57;;;;;;;15.56;65.66;100628.91;10395577;28;20080;-79
2022/10/30 07:47:41;;;;;;;13.38;7.00;;;;;;;16.01;63.53;100631.56;10422366;28;20056;-80
2022/10/30 07:52:58;;;;;;;19.45;6.82;;;;;;;16.36;62.78;100636.19;10421581;28;20053;-79
2022/10/30 07:58:04;;;;;;;17.50;6.90;;;;;;;16.89;61.81;100639.81;10430782;28;20442;-79
2022/10/30 08:03:27;;;;;;;20.05;6.97;;;;;;;17.31;60.24;100646.38;10426453;28;20523;-80
2022/10/30 08:08:35;;;;;;;16.10;6.65;;;;;;;17.56;59.80;100655.47;10427672;28;20052;-80
2022/10/30 08:14:00;;;;;;;16.85;6.35;;;;;;;17.88;59.21;100643.84;10436998;28;20076;-79
2022/10/30 08:19:04;;;;;;;19.55;6.50;;;;;;;18.36;58.82;100647.72;10441216;28;20549;-79
2022/10/30 08:24:08;;;;;;;13.57;6.72;;;;;;;18.46;57.74;100648.41;10440074;28;20150;-80
2022/10/30 08:29:13;;;;;;;16.70;8.00;;;;;;;18.65;57.44;100644.50;10420602;28;20037;-80
2022/10/30 08:34:20;;;;;;;15.65;7.75;;;;;;;18.98;56.70;100660.81;10463471;28;20051;-80
2022/10/30 08:39:27;;;;;;;14.27;7.00;;;;;;;19.26;56.00;100650.38;10443212;28;20045;-79
2022/10/30 08:44:37;;;;;;;14.65;6.70;;;;;;;19.51;55.53;100669.34;10425454;28;20045;-78
2022/10/30 08:50:11;;;;;;;13.40;6.85;;;;;;;20.15;53.60;100666.50;10382359;28;20041;-79
2022/10/30 08:55:15;;;;;;;17.65;7.22;;;;;;;20.29;52.87;100660.25;10426283;28;20052;-79
2022/10/30 09:00:18;;;;;;;12.38;6.50;;;;;;;20.56;52.12;100650.69;10431110;28;20044;-78
2022/10/30 09:05:41;;;;;;;10.85;6.32;;;;;;;20.95;51.36;100650.53;10412339;28;20040;-79
2022/10/30 09:11:04;;;;;;;12.65;5.32;;;;;;;20.90;50.33;100644.78;10411626;28;20398;-78
2022/10/30 09:16:08;;;;;;;16.05;6.03;;;;;;;21.12;49.53;100645.78;10436917;28;20155;-78
2022/10/30 09:21:14;;;;;;;16.40;5.65;;;;;;;21.28;49.03;100646.59;10444493;28;20049;-81
2022/10/30 09:26:21;;;;;;;14.45;5.88;;;;;;;21.57;48.86;100635.66;10428961;28;21345;-80
2022/10/30 09:31:36;;;;;;;16.38;6.18;;;;;;;21.87;48.24;100628.28;10447704;28;20048;-81
2022/10/30 09:36:42;;;;;;;13.75;5.60;;;;;;;21.60;48.35;100620.75;10432887;28;20049;-80
2022/10/30 09:42:15;;;;;;;16.75;6.25;;;;;;;21.73;49.14;100618.19;10447808;28;21222;-83
2022/10/30 09:47:38;;;;;;;16.75;5.30;;;;;;;22.42;48.86;100614.94;10447714;28;20812;-80
2022/10/30 09:52:52;;;;;;;11.85;6.03;;;;;;;22.59;47.81;100611.97;10440800;28;20044;-82
2022/10/30 09:58:04;;;;;;;11.32;5.60;;;;;;;22.65;47.20;100611.16;10436616;28;20055;-79
2022/10/30 10:03:22;;;;;;;14.73;5.07;;;;;;;22.46;46.57;100615.41;10427904;28;20049;-81
2022/10/30 10:08:51;;;;;;;11.63;5.22;;;;;;;22.51;47.35;100602.00;10432982;28;20052;-80
2022/10/30 10:14:39;;;;;;;12.23;5.28;;;;;;;22.59;46.75;100601.84;10368425;28;20131;-79
2022/10/30 10:19:49;;;;;;;13.82;5.07;;;;;;;23.05;45.87;100595.03;10409380;28;20045;-79
2022/10/30 10:24:55;;;;;;;12.05;4.97;;;;;;;23.18;45.13;100598.72;10423257;28;20056;-79
2022/10/30 10:30:03;;;;;;;17.98;5.43;;;;;;;23.52;44.92;100605.19;10448943;28;20044;-79
2022/10/30 10:35:32;;;;;;;11.60;5.07;;;;;;;24.59;43.09;100608.22;10448193;28;20740;-79
2022/10/30 10:40:52;;;;;;;14.07;5.60;;;;;;;24.78;42.58;100601.03;10389270;28;20053;-80
2022/10/30 10:46:09;;;;;;;16.38;5.20;;;;;;;24.63;43.28;100593.00;10439012;28;20118;-79
2022/10/30 10:51:17;;;;;;;10.73;5.07;;;;;;;25.74;41.77;100594.88;10443923;28;20055;-80
2022/10/30 10:56:27;;;;;;;16.17;6.55;;;;;;;26.12;40.67;100596.75;10428139;28;21191;-79
2022/10/30 11:01:36;;;;;;;18.13;5.53;;;;;;;26.38;39.74;100582.81;10440529;28;20409;-78
2022/10/30 11:06:43;;;;;;;13.43;5.68;;;;;;;26.60;39.37;100576.91;10422257;28;20135;-81
2022/10/30 11:11:49;;;;;;;13.02;5.47;;;;;;;26.87;39.46;100572.00;10437738;28;20044;-79
2022/10/30 11:17:02;;;;;;;15.40;5.47;;;;;;;26.10;40.62;100568.59;10438129;28;20077;-78
2022/10/30 11:22:17;;;;;;;12.48;5.53;;;;;;;26.70;40.04;100560.72;10426029;28;20045;-81
2022/10/30 11:27:27;;;;;;;18.10;5.38;;;;;;;27.01;39.56;100545.16;10448868;28;20045;-79
2022/10/30 11:32:32;;;;;;;9.60;5.70;;;;;;;27.36;39.23;100543.44;10398586;28;20044;-78
2022/10/30 11:37:36;;;;;;;12.80;5.60;;;;;;;27.60;39.08;100540.84;10418956;28;20052;-78
2022/10/30 11:42:43;;;;;;;17.70;6.85;;;;;;;27.45;39.37;100526.59;10433899;28;20076;-79
2022/10/30 11:47:47;;;;;;;13.07;5.65;;;;;;;27.51;39.50;100529.28;10448386;28;20139;-79
2022/10/30 11:52:53;;;;;;;11.50;5.53;;;;;;;28.21;38.88;100522.31;10444100;28;20051;-80
2022/10/30 11:57:59;;;;;;;17.52;5.82;;;;;;;28.49;37.84;100530.72;10448519;28;20053;-79
2022/10/30 12:03:03;;;;;;;12.60;5.57;;;;;;;28.16;38.10;100525.78;10426231;28;20422;-78
2022/10/30 12:08:21;;;;;;;19.00;6.30;;;;;;;28.27;38.01;100518.59;10436855;28;20045;-81
2022/10/30 12:13:26;;;;;;;18.00;6.10;;;;;;;27.18;39.46;100530.53;10447485;28;20041;-80
2022/10/30 12:18:30;;;;;;;13.65;6.35;;;;;;;26.44;40.90;100518.59;10443227;28;20076;-82
2022/10/30 12:23:40;;;;;;;15.23;6.07;;;;;;;26.09;41.33;100520.97;10429720;28;20111;-78
2022/10/30 12:28:51;;;;;;;17.92;6.07;;;;;;;26.10;41.90;100510.81;10435981;28;20131;-79
2022/10/30 12:34:05;;;;;;;13.32;5.53;;;;;;;25.93;42.33;100516.03;10422243;28;20041;-79
2022/10/30 12:39:14;;;;;;;17.15;6.00;;;;;;;25.96;43.11;100523.81;10418964;28;20045;-78
2022/10/30 12:44:22;;;;;;;15.85;5.88;;;;;;;25.98;42.90;100510.69;10443724;28;20121;-80
2022/10/30 12:49:31;;;;;;;12.13;5.75;;;;;;;26.19;42.71;100509.44;10451429;28;20055;-78
2022/10/30 12:54:41;;;;;;;16.00;6.53;;;;;;;26.01;43.09;100508.34;10440883;28;21209;-78
2022/10/30 12:59:58;;;;;;;10.43;5.10;;;;;;;25.96;43.35;100510.91;10453458;28;20403;-81
2022/10/30 13:05:04;;;;;;;14.60;5.75;;;;;;;25.49;43.83;100502.09;10425996;28;20626;-80
2022/10/30 13:10:21;;;;;;;13.38;5.97;;;;;;;24.63;46.02;100502.38;10434906;28;20049;-80
2022/10/30 13:15:29;;;;;;;14.48;5.88;;;;;;;24.06;47.45;100505.56;10432008;28;20045;-79
2022/10/30 13:20:34;;;;;;;17.27;6.80;;;;;;;24.14;47.51;100498.19;10416411;28;21603;-78
2022/10/30 13:25:48;;;;;;;15.75;5.47;;;;;;;24.44;47.06;100484.91;10442342;28;20117;-80
2022/10/30 13:31:00;;;;;;;17.83;7.15;;;;;;;24.23;46.90;100495.00;10447279;28;20037;-79
2022/10/30 13:36:10;;;;;;;16.77;7.43;;;;;;;24.30;47.29;100484.88;10430692;28;20090;-78
2022/10/30 13:41:28;;;;;;;14.57;6.60;;;;;;;24.35;47.39;100475.16;10453744;28;20049;-78
2022/10/30 13:46:51;;;;;;;13.25;6.38;;;;;;;24.38;47.13;100481.06;10433503;28;20071;-79
2022/10/30 13:52:01;;;;;;;20.48;7.50;;;;;;;24.32;47.49;100481.91;10455400;28;20040;-80
2022/10/30 13:57:14;;;;;;;13.40;6.07;;;;;;;24.16;47.51;100485.91;10438045;28;20043;-81
2022/10/30 14:02:32;;;;;;;17.48;6.03;;;;;;;23.82;47.94;100492.47;10447675;28;20048;-79
2022/10/30 14:07:42;;;;;;;14.27;6.25;;;;;;;23.46;48.64;100485.41;10441683;28;20108;-79
2022/10/30 14:13:13;;;;;;;17.85;6.22;;;;;;;22.85;50.08;100491.69;10423789;28;20059;-79
2022/10/30 14:18:34;;;;;;;11.40;6.30;;;;;;;22.61;51.50;100483.94;10440599;28;20044;-79
2022/10/30 14:23:38;;;;;;;14.55;5.93;;;;;;;22.28;51.86;100485.38;10424879;28;20079;-79
2022/10/30 14:28:43;;;;;;;16.73;7.03;;;;;;;21.99;52.92;100480.09;10420724;28;20041;-80
2022/10/30 14:33:49;;;;;;;12.23;5.55;;;;;;;21.77;53.53;100477.34;10441245;28;20051;-80
2022/10/30 14:39:00;;;;;;;16.73;6.50;;;;;;;21.51;54.35;100482.56;10423814;28;20602;-79
2022/10/30 14:44:25;;;;;;;14.30;6.27;;;;;;;21.32;55.24;100475.81;10457573;28;20055;-80
2022/10/30 14:49:46;;;;;;;15.80;6.18;;;;;;;21.13;56.16;100474.53;10440937;28;20183;-78
2022/10/30 14:54:58;;;;;;;18.23;6.95;;;;;;;20.96;56.91;100471.16;10395254;28;20091;-78
2022/10/30 15:00:38;;;;;;;13.23;7.30;;;;;;;20.66;57.92;100470.34;10447717;28;20052;-78
2022/10/30 15:05:50;;;;;;;17.65;6.72;;;;;;;20.49;58.36;100475.97;10342166;28;20147;-79
2022/10/30 15:11:11;;;;;;;15.63;6.47;;;;;;;20.39;58.83;100472.66;10434206;28;20053;-80
2022/10/30 15:16:22;;;;;;;11.88;6.57;;;;;;;20.24;59.28;100466.28;10428821;28;20134;-79
2022/10/30 15:21:28;;;;;;;17.98;7.30;;;;;;;20.11;59.78;100469.69;10427510;28;20124;-79
2022/10/30 15:26:36;;;;;;;14.93;7.22;;;;;;;19.89;60.47;100472.25;10431649;28;20048;-79
2022/10/30 15:31:38;;;;;;;16.80;7.55;;;;;;;19.73;60.82;100477.84;10429214;28;20049;-79
2022/10/30 15:36:42;;;;;;;15.05;6.93;;;;;;;19.58;61.42;100475.06;10422655;28;20048;-79
2022/10/30 15:41:47;;;;;;;15.35;6.95;;;;;;;19.38;62.02;100485.53;10451830;28;20060;-80
2022/10/30 15:46:53;;;;;;;16.15;7.30;;;;;;;19.19;62.71;100475.94;10448852;28;20083;-82
2022/10/30 15:51:59;;;;;;;15.75;7.00;;;;;;;18.97;63.58;100480.28;10428888;28;20363;-79
2022/10/30 15:57:02;;;;;;;24.13;8.57;;;;;;;18.76;64.40;100477.31;10456228;28;20875;-78
2022/10/30 16:02:26;;;;;;;22.63;9.70;;;;;;;18.63;64.82;100488.75;10453389;28;20040;-80
2022/10/30 16:07:31;;;;;;;20.17;9.15;;;;;;;18.55;65.02;100483.31;10420378;28;20076;-80
2022/10/30 16:12:35;;;;;;;16.05;8.05;;;;;;;18.48;65.11;100482.31;10456621;28;20609;-80
2022/10/30 16:17:38;;;;;;;12.77;8.40;;;;;;;18.39;65.35;100483.38;10404023;28;20052;-79
2022/10/30 16:22:42;;;;;;;16.33;7.97;;;;;;;18.32;65.54;100480.47;10422717;28;20055;-79
2022/10/30 16:27:46;;;;;;;16.63;8.23;;;;;;;18.23;65.92;100478.78;10419461;28;20053;-80
2022/10/30 16:32:53;;;;;;;20.58;9.18;;;;;;;18.12;66.44;100480.00;10429865;28;20056;-78
2022/10/30 16:38:01;;;;;;;19.67;9.50;;;;;;;18.06;66.82;100489.69;10433433;28;20139;-79
2022/10/30 16:43:04;;;;;;;18.10;8.65;;;;;;;17.92;67.31;100484.91;10430969;28;20052;-79
2022/10/30 16:48:15;;;;;;;15.55;8.25;;;;;;;17.92;67.41;100485.75;10452593;28;20090;-78
2022/10/30 16:53:23;;;;;;;19.48;9.07;;;;;;;17.89;67.30;100488.81;10434814;28;21235;-78
2022/10/30 16:58:29;;;;;;;21.20;8.80;;;;;;;17.80;67.51;100498.00;10426744;28;20048;-79
2022/10/30 17:03:37;;;;;;;21.20;8.63;;;;;;;17.70;68.08;100506.28;10442648;28;20127;-78
2022/10/30 17:08:42;;;;;;;17.65;8.85;;;;;;;17.70;68.15;100514.44;10435490;28;20178;-78
2022/10/30 17:14:01;;;;;;;22.20;9.00;;;;;;;17.69;68.09;100520.91;10441916;28;20046;-78
2022/10/30 17:19:39;;;;;;;18.38;9.10;;;;;;;17.65;68.19;100540.41;10404028;28;20044;-78
2022/10/30 17:24:43;;;;;;;24.17;9.20;;;;;;;17.60;68.37;100534.63;10441139;28;20083;-78
2022/10/30 17:29:46;;;;;;;18.15;8.32;;;;;;;17.52;68.58;100559.88;10426723;28;20044;-78
2022/10/30 17:34:55;;;;;;;16.50;8.52;;;;;;;17.41;68.91;100550.19;10460459;28;21217;-78
2022/10/30 17:40:04;;;;;;;22.55;9.82;;;;;;;17.31;69.56;100565.78;10417908;28;20214;-79
2022/10/30 17:45:12;;;;;;;27.10;10.38;;;;;;;17.26;69.44;100565.41;10434318;28;20581;-78
2022/10/30 17:50:15;;;;;;;17.42;8.52;;;;;;;17.21;69.66;100578.63;10428843;28;20040;-78
2022/10/30 17:55:24;;;;;;;21.10;9.50;;;;;;;17.12;69.78;100574.16;10424311;28;20086;-78
2022/10/30 18:00:27;;;;;;;18.67;9.85;;;;;;;17.03;69.92;100593.09;10426820;28;20053;-77
2022/10/30 18:05:32;;;;;;;22.35;10.32;;;;;;;16.97;70.19;100599.16;10438630;28;20142;-76
2022/10/30 18:10:36;;;;;;;18.92;10.05;;;;;;;16.94;70.32;100604.91;10423245;28;20044;-78
2022/10/30 18:15:42;;;;;;;20.35;9.60;;;;;;;16.92;70.58;100609.66;10456726;28;20044;-78
2022/10/30 18:20:45;;;;;;;21.60;11.10;;;;;;;16.87;70.26;100611.16;10425984;28;20052;-78
2022/10/30 18:25:50;;;;;;;20.08;9.60;;;;;;;16.77;70.50;100611.25;10438812;28;20058;-78
2022/10/30 18:30:55;;;;;;;20.58;10.30;;;;;;;16.75;70.84;100624.97;10443188;28;20118;-78
2022/10/30 18:35:59;;;;;;;23.48;10.52;;;;;;;16.76;70.99;100625.84;10463502;28;20054;-79
2022/10/30 18:41:04;;;;;;;18.17;9.00;;;;;;;16.75;70.34;100626.81;10407710;28;20051;-79
2022/10/30 18:46:10;;;;;;;16.13;8.02;;;;;;;16.96;65.77;100631.91;10405444;28;20055;-80
2022/10/30 18:51:16;;;;;;;23.50;7.20;;;;;;;17.25;64.10;100642.41;10409923;28;20544;-79
2022/10/30 18:56:22;;;;;;;16.33;8.00;;;;;;;17.31;63.61;100638.22;10422025;28;20132;-79
2022/10/30 19:01:25;;;;;;;18.02;7.28;;;;;;;17.24;63.28;100644.28;10443295;28;20066;-78
2022/10/30 19:06:29;;;;;;;15.05;7.07;;;;;;;17.22;63.17;100643.63;10443985;28;20041;-78
2022/10/30 19:11:33;;;;;;;17.92;7.05;;;;;;;17.26;62.81;100644.13;10440932;28;20134;-79
2022/10/30 19:16:39;;;;;;;16.02;6.88;;;;;;;17.19;62.96;100651.22;10440413;28;20059;-80
2022/10/30 19:21:42;;;;;;;21.10;7.70;;;;;;;17.11;62.82;100643.84;10449276;28;20060;-80
2022/10/30 19:26:46;;;;;;;17.17;7.80;;;;;;;17.08;62.59;100651.47;10441054;28;20045;-80
2022/10/30 19:31:49;;;;;;;15.85;7.07;;;;;;;16.95;62.31;100652.75;10443481;28;20137;-79
2022/10/30 19:36:51;;;;;;;18.83;7.22;;;;;;;16.99;61.52;100664.13;10438484;28;20506;-80
2022/10/30 19:41:56;;;;;;;17.77;7.43;;;;;;;16.94;61.07;100663.75;10436730;28;20052;-80
2022/10/30 19:46:59;;;;;;;13.52;6.25;;;;;;;17.11;60.22;100676.41;10441933;28;20049;-80
2022/10/30 19:52:02;;;;;;;16.20;7.15;;;;;;;17.02;60.26;100685.53;10446582;28;20506;-78
2022/10/30 19:57:12;;;;;;;18.83;6.28;;;;;;;16.87;60.55;100678.97;10442521;28;20057;-78
2022/10/30 20:02:14;;;;;;;17.58;7.63;;;;;;;16.88;60.44;100686.09;10432926;28;20053;-78
2022/10/30 20:07:17;;;;;;;11.80;6.57;;;;;;;16.70;60.67;100686.13;10446509;28;20079;-78
2022/10/30 20:12:22;;;;;;;12.30;7.00;;;;;;;16.50;61.36;100689.00;10477504;28;20055;-77
2022/10/30 20:17:24;;;;;;;17.20;7.72;;;;;;;16.57;60.70;100673.81;10462520;28;20160;-78
2022/10/30 20:22:27;;;;;;;14.05;6.25;;;;;;;16.47;61.53;100691.19;10446546;28;20486;-77
2022/10/30 20:27:31;;;;;;;18.08;6.82;;;;;;;16.45;61.75;100676.94;10443046;28;20048;-80
2022/10/30 20:32:34;;;;;;;13.27;6.90;;;;;;;16.42;61.55;100672.66;10443174;28;20056;-79
2022/10/30 20:37:37;;;;;;;20.00;7.82;;;;;;;16.09;62.86;100683.16;10448419;28;20052;-80
2022/10/30 20:42:42;;;;;;;11.55;6.97;;;;;;;16.20;62.06;100690.19;10436854;28;20058;-79
2022/10/30 20:47:46;;;;;;;14.63;7.53;;;;;;;16.17;62.16;100703.22;10453130;28;20422;-80
2022/10/30 20:52:49;;;;;;;22.20;7.32;;;;;;;16.03;63.00;100720.84;10450493;28;20071;-80
2022/10/30 20:57:53;;;;;;;10.43;7.18;;;;;;;16.03;63.02;100724.41;10453670;28;20054;-80
2022/10/30 21:02:56;;;;;;;15.20;7.57;;;;;;;15.84;62.90;100732.66;10419912;28;20068;-79
2022/10/30 21:07:59;;;;;;;16.50;7.85;;;;;;;15.89;62.31;100733.91;10442754;28;20124;-80
2022/10/30 21:13:04;;;;;;;14.00;7.07;;;;;;;16.08;61.69;100741.06;10441925;28;20064;-79
2022/10/30 21:18:12;;;;;;;17.25;7.25;;;;;;;16.13;61.74;100755.03;10436131;28;20186;-78
2022/10/30 21:23:15;;;;;;;18.17;7.05;;;;;;;15.93;62.34;100765.13;10438256;28;20044;-79
2022/10/30 21:28:19;;;;;;;17.00;6.28;;;;;;;15.85;62.25;100765.00;10424871;28;20049;-79
2022/10/30 21:33:22;;;;;;;19.85;8.00;;;;;;;15.80;62.45;100767.31;10425060;28;20057;-78
2022/10/30 21:38:24;;;;;;;18.63;7.47;;;;;;;15.78;62.18;100772.03;10422367;28;20056;-79
2022/10/30 21:43:29;;;;;;;13.15;6.65;;;;;;;15.79;62.26;100764.75;10427380;28;20045;-79
2022/10/30 21:48:31;;;;;;;17.27;7.18;;;;;;;15.74;61.86;100770.59;10444495;28;20061;-79
2022/10/30 21:53:34;;;;;;;17.90;7.13;;;;;;;15.70;62.09;100766.50;10433689;28;20076;-80
2022/10/30 21:58:38;;;;;;;11.23;6.53;;;;;;;15.58;62.23;100773.97;10432069;28;20052;-79
2022/10/30 22:03:41;;;;;;;15.48;6.57;;;;;;;15.60;62.50;100755.69;10442230;28;20540;-80
2022/10/30 22:08:45;;;;;;;15.05;7.20;;;;;;;15.50;62.74;100779.25;10436364;28;20049;-78
2022/10/30 22:13:53;;;;;;;15.43;6.18;;;;;;;15.56;62.85;100766.97;10465464;28;20502;-79
2022/10/30 22:18:56;;;;;;;16.75;7.47;;;;;;;15.43;63.50;100772.72;10460775;28;20140;-79
2022/10/30 22:24:00;;;;;;;16.27;7.53;;;;;;;15.34;64.12;100771.72;10476102;23;20244;-76
2022/10/30 22:29:04;;;;;;;15.55;6.65;;;;;;;15.31;64.16;100779.28;10357034;28;20080;-78
2022/10/30 22:34:09;;;;;;;13.63;7.18;;;;;;;15.04;65.75;100779.00;10391332;28;20041;-77
2022/10/30 22:39:13;;;;;;;18.85;8.82;;;;;;;15.19;65.25;100776.72;10396517;28;20049;-75
2022/10/30 22:44:18;;;;;;;17.75;8.32;;;;;;;15.02;66.53;100790.97;10395785;28;20504;-76
2022/10/30 22:49:21;;;;;;;17.45;8.23;;;;;;;14.92;66.72;100796.41;10364633;28;20133;-79
2022/10/30 22:54:24;;;;;;;22.55;8.85;;;;;;;14.93;67.30;100795.38;10392172;28;20077;-77
2022/10/30 22:59:29;;;;;;;18.13;8.95;;;;;;;14.99;67.17;100797.53;10399249;28;20539;-77
2022/10/30 23:04:32;;;;;;;19.00;9.43;;;;;;;14.96;67.63;100805.06;10392532;28;20050;-77
2022/10/30 23:09:35;;;;;;;18.38;10.07;;;;;;;14.96;68.36;100811.34;10389567;28;20141;-77
2022/10/30 23:14:40;;;;;;;20.52;10.05;;;;;;;14.82;68.56;100809.06;10401484;28;20144;-77
2022/10/30 23:19:43;;;;;;;22.63;10.75;;;;;;;14.58;69.99;100826.53;10396805;28;20235;-77